Aviation Digital Data Service (ADDS)

Output produced by TAFs form (2310 UTC 16 January 2018)
found at http://www.aviationweather.gov/adds/tafs/
 
KMCN 162253Z 00000KT 10SM BKN050 12/M01 A3032 RMK AO2 SLP267 T01221011
KMCN 161720Z 1618/1718 22005KT P6SM BKN250 
     FM170000 29006KT P6SM BKN040 OVC100 
     FM170500 31010KT P6SM -SN SCT015 BKN030 OVC060 
     FM171500 31014G25KT P6SM SKC